createdAt,value
2019-04-14T00:00:03.359Z,94.26
2019-04-14T00:02:40.530Z,93.75
2019-04-14T00:05:08.432Z,94.10
2019-04-14T00:07:34.548Z,94.35
2019-04-14T00:10:00.784Z,94.50
2019-04-14T00:12:27.333Z,93.97
2019-04-14T00:14:53.452Z,94.21
2019-04-14T00:17:19.600Z,94.12
2019-04-14T00:19:45.733Z,94.04
2019-04-14T00:22:11.803Z,94.18
2019-04-14T00:24:38.117Z,94.59
2019-04-14T00:27:04.262Z,95.14
2019-04-14T00:29:30.637Z,95.47
2019-04-14T00:31:57.009Z,95.46
2019-04-14T00:34:35.224Z,95.16
2019-04-14T00:37:03.439Z,95.24
2019-04-14T00:39:31.596Z,95.16
2019-04-14T00:42:02.102Z,95.10
2019-04-14T00:44:47.399Z,95.42
2019-04-14T00:47:15.787Z,95.24
2019-04-14T00:49:41.983Z,95.19
2019-04-14T00:52:07.965Z,94.97
2019-04-14T00:54:34.623Z,94.84
2019-04-14T00:57:00.905Z,95.48
2019-04-14T00:59:27.036Z,95.97
2019-04-14T01:01:52.834Z,95.95
2019-04-14T01:04:18.757Z,96.47
2019-04-14T01:06:44.934Z,97.33
2019-04-14T01:09:13.070Z,97.94
2019-04-14T01:11:39.990Z,98.25
2019-04-14T01:14:06.113Z,98.33
2019-04-14T01:16:32.208Z,97.83
2019-04-14T01:18:58.285Z,97.13
2019-04-14T01:21:24.402Z,96.64
2019-04-14T01:23:50.242Z,97.00
2019-04-14T01:26:16.063Z,96.36
2019-04-14T01:28:41.947Z,96.27
2019-04-14T01:31:08.095Z,96.71
2019-04-14T01:33:33.907Z,96.84
2019-04-14T01:36:00.009Z,97.69
2019-04-14T01:38:26.096Z,97.98
2019-04-14T01:40:53.058Z,97.83
2019-04-14T01:43:18.996Z,98.03
2019-04-14T01:45:58.108Z,97.91
2019-04-14T01:48:12.808Z,98.15
2019-04-14T01:50:40.949Z,97.86
2019-04-14T01:53:09.675Z,97.76
2019-04-14T01:55:44.089Z,97.34
2019-04-14T01:58:14.669Z,97.04
2019-04-14T02:00:46.577Z,96.80
2019-04-14T02:03:12.828Z,96.40
2019-04-14T02:05:38.653Z,96.26
2019-04-14T02:08:04.563Z,95.98
2019-04-14T02:10:30.543Z,95.75
2019-04-14T02:12:56.589Z,95.37
2019-04-14T02:15:22.438Z,95.17
2019-04-14T02:17:48.495Z,95.47
2019-04-14T02:20:14.295Z,95.90
2019-04-14T02:22:40.092Z,96.58
2019-04-14T02:25:05.934Z,97.05
2019-04-14T02:27:32.020Z,96.98
2019-04-14T02:29:58.234Z,96.51
2019-04-14T02:32:49.418Z,96.60
2019-04-14T02:40:21.781Z,96.75
2019-04-14T02:42:42.038Z,96.49
2019-04-14T02:45:12.322Z,96.68
2019-04-14T02:50:05.364Z,97.25
2019-04-14T02:54:59.496Z,97.19
2019-04-14T02:57:30.261Z,97.21
2019-04-14T03:00:03.468Z,96.79
2019-04-14T03:04:50.638Z,96.44
2019-04-14T03:07:21.945Z,96.61
2019-04-14T03:12:16.435Z,96.15
2019-04-14T03:14:49.318Z,96.11
2019-04-14T03:17:24.795Z,95.99
2019-04-14T03:22:28.885Z,95.05
2019-04-14T03:25:00.483Z,95.06
2019-04-14T03:27:55.103Z,95.24
2019-04-14T03:30:33.605Z,95.57
2019-04-14T03:33:05.291Z,95.50
2019-04-14T03:35:35.775Z,96.00
2019-04-14T03:37:45.284Z,95.86
2019-04-14T03:40:15.949Z,95.62
2019-04-14T03:45:22.249Z,94.77
2019-04-14T03:47:25.757Z,94.23
2019-04-14T03:50:00.330Z,94.20
2019-04-14T03:52:34.964Z,94.10
2019-04-14T03:54:44.132Z,94.37
2019-04-14T03:56:55.805Z,94.47
2019-04-14T03:59:22.047Z,94.68
2019-04-14T04:01:49.943Z,94.65
2019-04-14T04:04:16.190Z,94.33
2019-04-14T04:06:42.312Z,94.27
2019-04-14T04:09:08.411Z,95.01
2019-04-14T04:11:34.526Z,95.03
2019-04-14T04:14:00.675Z,94.70
2019-04-14T04:16:29.052Z,94.22
2019-04-14T04:19:05.417Z,94.03
2019-04-14T04:21:44.369Z,93.71
2019-04-14T04:24:12.889Z,93.19
2019-04-14T04:26:43.514Z,93.37
2019-04-14T04:29:11.305Z,93.86
2019-04-14T04:31:52.539Z,93.93
2019-04-14T04:34:38.409Z,94.11
2019-04-14T04:37:14.991Z,93.82
2019-04-14T04:39:56.042Z,93.87
2019-04-14T04:42:22.245Z,93.72
2019-04-14T04:44:48.800Z,93.59
2019-04-14T04:47:14.944Z,93.00
2019-04-14T04:49:40.742Z,93.09
2019-04-14T04:52:06.563Z,93.18
2019-04-14T04:54:32.639Z,92.92
2019-04-14T04:56:58.449Z,92.81
2019-04-14T04:59:25.498Z,92.54
2019-04-14T05:01:51.656Z,92.45
2019-04-14T05:04:17.710Z,92.47
2019-04-14T05:06:50.614Z,92.00
2019-04-14T05:09:36.851Z,91.58
2019-04-14T05:12:24.269Z,91.41
2019-04-14T05:15:01.463Z,91.20
2019-04-14T05:17:29.867Z,91.31
2019-04-14T05:19:56.238Z,91.74
2019-04-14T05:22:22.394Z,92.02
2019-04-14T05:24:48.590Z,92.04
2019-04-14T05:27:14.627Z,91.89
2019-04-14T05:29:40.846Z,91.32
2019-04-14T05:32:06.702Z,90.85
2019-04-14T05:34:32.766Z,91.04
2019-04-14T05:36:58.574Z,90.76
2019-04-14T05:39:24.621Z,90.56
2019-04-14T05:42:00.518Z,91.27
2019-04-14T05:44:18.636Z,90.81
2019-04-14T05:46:44.729Z,91.26
2019-04-14T05:49:10.949Z,91.76
2019-04-14T05:51:39.135Z,91.25
2019-04-14T05:54:05.677Z,91.61
2019-04-14T05:56:32.570Z,91.25
2019-04-14T05:59:00.123Z,91.43
2019-04-14T06:01:26.972Z,91.78
2019-04-14T06:03:53.930Z,91.16
2019-04-14T06:06:19.811Z,90.88
2019-04-14T06:08:45.628Z,90.43
2019-04-14T06:11:11.442Z,91.35
2019-04-14T06:13:37.544Z,91.35
2019-04-14T06:16:03.343Z,90.34
2019-04-14T06:18:29.430Z,90.31
2019-04-14T06:20:55.247Z,90.00
2019-04-14T06:23:21.098Z,89.63
2019-04-14T06:25:47.153Z,89.78
2019-04-14T06:28:12.951Z,89.97
2019-04-14T06:30:56.057Z,90.25
2019-04-14T06:33:38.698Z,89.09
2019-04-14T06:36:06.699Z,88.65
2019-04-14T06:38:34.678Z,88.78
2019-04-14T06:41:02.393Z,89.16
2019-04-14T06:43:28.277Z,88.98
2019-04-14T06:45:54.181Z,88.67
2019-04-14T06:48:20.021Z,88.57
2019-04-14T06:50:46.631Z,87.32
2019-04-14T06:53:12.466Z,88.06
2019-04-14T06:55:38.319Z,88.25
2019-04-14T06:58:04.158Z,87.93
2019-04-14T07:00:30.279Z,87.79
2019-04-14T07:02:56.432Z,87.59
2019-04-14T07:05:22.237Z,87.24
2019-04-14T07:07:56.982Z,87.94
2019-04-14T07:10:15.757Z,87.53
2019-04-14T07:12:43.163Z,87.88
2019-04-14T07:15:09.708Z,87.30
2019-04-14T07:17:35.515Z,87.92
2019-04-14T07:20:02.672Z,88.99
2019-04-14T07:22:28.550Z,89.18
2019-04-14T07:24:54.594Z,89.44
2019-04-14T07:27:20.732Z,89.27
2019-04-14T07:29:51.253Z,88.58
2019-04-14T07:32:34.165Z,88.83
2019-04-14T07:35:04.415Z,88.68
2019-04-14T07:37:32.153Z,88.13
2019-04-14T07:40:03.170Z,88.88
2019-04-14T07:42:37.285Z,88.75
2019-04-14T07:45:22.705Z,89.37
2019-04-14T07:47:59.357Z,89.90
2019-04-14T07:50:29.847Z,89.78
2019-04-14T07:53:06.735Z,90.58
2019-04-14T07:55:37.097Z,90.19
2019-04-14T07:58:19.783Z,89.57
2019-04-14T08:00:47.499Z,88.32
2019-04-14T08:03:24.513Z,88.09
2019-04-14T08:05:50.340Z,87.92
2019-04-14T08:08:16.133Z,86.19
2019-04-14T08:10:41.919Z,86.25
2019-04-14T08:13:08.017Z,86.07
2019-04-14T08:15:33.829Z,86.44
2019-04-14T08:17:59.926Z,85.57
2019-04-14T08:20:27.772Z,84.90
2019-04-14T08:22:53.494Z,83.35
2019-04-14T08:25:19.321Z,83.16
2019-04-14T08:27:45.125Z,83.58
2019-04-14T08:30:11.055Z,83.09
2019-04-14T08:32:37.150Z,81.64
2019-04-14T08:35:04.924Z,83.54
2019-04-14T08:37:30.750Z,82.34
2019-04-14T08:40:33.583Z,82.82
2019-04-14T08:43:01.564Z,82.74
2019-04-14T08:45:41.350Z,81.32
2019-04-14T08:48:18.126Z,80.49
2019-04-14T08:50:46.137Z,79.60
2019-04-14T08:53:14.082Z,80.14
2019-04-14T08:55:41.830Z,78.67
2019-04-14T08:58:22.181Z,77.83
2019-04-14T09:00:49.874Z,76.77
2019-04-14T09:03:32.640Z,74.73
2019-04-14T09:06:00.656Z,75.90
2019-04-14T09:08:34.218Z,75.32
2019-04-14T09:11:05.168Z,75.88
2019-04-14T09:13:31.238Z,76.10
2019-04-14T09:15:57.272Z,76.45
2019-04-14T09:18:23.084Z,75.30
2019-04-14T09:20:52.564Z,77.71
2019-04-14T09:23:20.280Z,75.43
2019-04-14T09:25:46.455Z,74.57
2019-04-14T09:28:12.534Z,75.46
2019-04-14T09:30:38.331Z,73.83
2019-04-14T09:33:04.137Z,73.77
2019-04-14T09:35:30.227Z,74.25
2019-04-14T09:37:56.029Z,73.01
2019-04-14T09:40:24.629Z,73.45
2019-04-14T09:42:50.442Z,71.55
2019-04-14T09:45:18.868Z,71.86
2019-04-14T09:47:44.943Z,71.82
2019-04-14T09:50:13.790Z,71.68
2019-04-14T09:52:39.579Z,69.93
2019-04-14T09:55:10.302Z,70.41
2019-04-14T09:57:36.380Z,69.57
2019-04-14T10:00:05.738Z,69.43
2019-04-14T10:02:31.540Z,67.93
2019-04-14T10:05:00.461Z,68.21
2019-04-14T10:07:26.294Z,67.01
2019-04-14T10:09:52.184Z,67.23
2019-04-14T10:12:18.065Z,67.95
2019-04-14T10:14:43.825Z,68.07
2019-04-14T10:17:09.884Z,66.73
2019-04-14T10:19:35.697Z,68.62
2019-04-14T10:22:04.791Z,70.05
2019-04-14T10:24:30.574Z,69.07
2019-04-14T10:26:59.536Z,69.99
2019-04-14T10:29:25.347Z,70.16
2019-04-14T10:31:56.151Z,69.20
2019-04-14T10:34:21.945Z,69.44
2019-04-14T10:36:51.128Z,68.26
2019-04-14T10:39:16.929Z,67.65
2019-04-14T10:41:45.490Z,65.57
2019-04-14T10:44:11.321Z,66.56
2019-04-14T10:46:37.182Z,61.37
2019-04-14T10:49:02.988Z,61.44
2019-04-14T10:51:30.340Z,60.30
2019-04-14T10:53:57.079Z,61.25
2019-04-14T10:56:23.172Z,60.22
2019-04-14T10:58:52.307Z,60.52
2019-04-14T11:01:18.100Z,57.91
2019-04-14T11:03:46.654Z,55.37
2019-04-14T11:06:14.639Z,55.27
2019-04-14T11:08:40.450Z,56.91
2019-04-14T11:11:06.497Z,59.88
2019-04-14T11:13:35.387Z,58.50
2019-04-14T11:16:01.482Z,60.46
2019-04-14T11:18:28.975Z,60.86
2019-04-14T11:20:54.779Z,60.72
2019-04-14T11:23:20.599Z,61.02
2019-04-14T11:25:46.409Z,60.19
2019-04-14T11:28:12.297Z,59.53
2019-04-14T11:30:41.216Z,59.13
2019-04-14T11:33:08.957Z,58.47
2019-04-14T11:35:36.670Z,56.65
2019-04-14T11:38:13.734Z,59.06
2019-04-14T11:40:41.433Z,55.82
2019-04-14T11:43:07.537Z,55.72
2019-04-14T11:45:33.471Z,56.94
2019-04-14T11:47:59.290Z,56.43
2019-04-14T11:50:25.101Z,57.28
2019-04-14T11:52:50.904Z,58.59
2019-04-14T11:55:17.025Z,55.94
2019-04-14T11:57:42.827Z,56.27
2019-04-14T12:00:11.016Z,55.41
2019-04-14T12:02:41.488Z,55.13
2019-04-14T12:05:12.583Z,53.19
2019-04-14T12:07:52.254Z,55.38
2019-04-14T12:10:18.468Z,54.35
2019-04-14T12:12:44.566Z,54.52
2019-04-14T12:15:16.159Z,56.11
2019-04-14T12:17:38.585Z,56.11
2019-04-14T12:20:05.369Z,57.63
2019-04-14T12:22:32.189Z,55.40
2019-04-14T12:24:58.105Z,54.13
2019-04-14T12:27:23.914Z,57.17
2019-04-14T12:29:50.114Z,56.95
2019-04-14T12:32:17.212Z,57.59
2019-04-14T12:34:43.194Z,57.75
2019-04-14T12:37:09.007Z,58.31
2019-04-14T12:39:34.797Z,59.15
2019-04-14T12:42:14.746Z,57.82
2019-04-14T12:44:48.520Z,57.02
2019-04-14T12:47:25.161Z,55.46
2019-04-14T12:49:55.923Z,56.19
2019-04-14T12:52:23.658Z,56.63
2019-04-14T12:54:49.486Z,55.83
2019-04-14T12:57:17.209Z,55.75
2019-04-14T12:59:42.999Z,55.54
2019-04-14T13:02:13.736Z,54.73
2019-04-14T13:04:39.546Z,56.61
2019-04-14T13:07:05.326Z,55.29
2019-04-14T13:09:31.402Z,49.70
2019-04-14T13:11:57.214Z,47.91
2019-04-14T13:14:23.042Z,49.76
2019-04-14T13:16:49.040Z,50.93
2019-04-14T13:19:14.853Z,48.96
2019-04-14T13:21:40.670Z,48.96
2019-04-14T13:24:06.905Z,49.38
2019-04-14T13:26:32.709Z,49.57
2019-04-14T13:28:58.782Z,49.99
2019-04-14T13:31:25.219Z,49.66
2019-04-14T13:33:51.128Z,48.21
2019-04-14T13:36:16.942Z,48.07
2019-04-14T13:38:42.987Z,47.53
2019-04-14T13:41:09.087Z,47.46
2019-04-14T13:43:34.867Z,47.13
2019-04-14T13:46:01.068Z,48.22
2019-04-14T13:48:27.166Z,47.02
2019-04-14T13:50:52.995Z,47.56
2019-04-14T13:53:19.069Z,46.17
2019-04-14T13:55:45.137Z,46.13
2019-04-14T13:58:11.220Z,42.40
2019-04-14T14:00:37.026Z,45.66
2019-04-14T14:03:02.922Z,45.54
2019-04-14T14:05:28.938Z,45.58
2019-04-14T14:07:54.751Z,46.23
2019-04-14T14:10:20.656Z,45.93
2019-04-14T14:12:51.399Z,46.98
2019-04-14T14:15:36.004Z,46.47
2019-04-14T14:18:22.347Z,46.97
2019-04-14T14:20:50.112Z,47.73
2019-04-14T14:23:27.902Z,47.11
2019-04-14T14:26:01.826Z,48.03
2019-04-14T14:28:27.622Z,46.72
2019-04-14T14:30:53.423Z,45.80
2019-04-14T14:33:19.244Z,45.20
2019-04-14T14:35:45.059Z,45.98
2019-04-14T14:38:10.883Z,46.71
2019-04-14T14:40:36.673Z,47.25
2019-04-14T14:43:05.599Z,47.39
2019-04-14T14:45:42.610Z,47.60
2019-04-14T14:48:13.327Z,47.62
2019-04-14T14:50:41.055Z,46.34
2019-04-14T14:53:12.306Z,46.96
2019-04-14T14:55:34.571Z,47.38
2019-04-14T14:58:00.669Z,45.94
2019-04-14T15:00:28.719Z,44.90
2019-04-14T15:02:54.550Z,43.60
2019-04-14T15:05:20.318Z,43.15
2019-04-14T15:07:46.103Z,44.05
2019-04-14T15:10:12.025Z,43.95
2019-04-14T15:12:38.103Z,44.04
2019-04-14T15:15:05.855Z,45.98
2019-04-14T15:17:31.907Z,45.76
2019-04-14T15:19:57.714Z,45.05
2019-04-14T15:22:23.533Z,43.10
2019-04-14T15:24:49.358Z,41.04
2019-04-14T15:27:15.284Z,41.25
2019-04-14T15:29:41.337Z,41.19
2019-04-14T15:32:07.435Z,41.13
2019-04-14T15:34:33.485Z,39.48
2019-04-14T15:36:59.291Z,40.52
2019-04-14T15:39:25.146Z,41.32
2019-04-14T15:41:54.314Z,41.68
2019-04-14T15:44:20.149Z,42.50
2019-04-14T15:46:46.266Z,44.45
2019-04-14T15:49:12.077Z,45.44
2019-04-14T15:51:43.041Z,45.59
2019-04-14T15:54:09.168Z,46.32
2019-04-14T15:56:45.681Z,47.02
2019-04-14T15:59:13.432Z,45.02
2019-04-14T16:01:50.781Z,44.49
2019-04-14T16:04:27.580Z,44.26
2019-04-14T16:06:55.262Z,44.06
2019-04-14T16:09:31.919Z,43.32
2019-04-14T16:11:59.685Z,42.91
2019-04-14T16:14:36.843Z,43.05
2019-04-14T16:17:15.859Z,43.53
2019-04-14T16:19:47.473Z,43.97
2019-04-14T16:22:13.585Z,45.92
2019-04-14T16:24:42.630Z,46.47
2019-04-14T16:27:10.363Z,47.45
2019-04-14T16:29:39.477Z,48.04
2019-04-14T16:32:19.395Z,48.19
2019-04-14T16:34:56.642Z,48.28
2019-04-14T16:37:22.739Z,48.18
2019-04-14T16:39:48.522Z,48.34
2019-04-14T16:42:14.606Z,48.45
2019-04-14T16:44:40.721Z,48.86
2019-04-14T16:47:06.506Z,49.39
2019-04-14T16:49:32.305Z,50.14
2019-04-14T16:52:00.006Z,49.31
2019-04-14T16:54:44.211Z,49.14
2019-04-14T16:57:29.225Z,49.78
2019-04-14T16:59:55.220Z,49.05
2019-04-14T17:02:21.313Z,50.04
2019-04-14T17:04:47.092Z,51.27
2019-04-14T17:07:13.169Z,51.37
2019-04-14T17:09:38.986Z,51.69
2019-04-14T17:12:04.795Z,51.48
2019-04-14T17:14:36.303Z,51.30
2019-04-14T17:17:24.538Z,52.28
2019-04-14T17:19:57.155Z,52.15
2019-04-14T17:22:28.145Z,52.89
2019-04-14T17:25:05.198Z,53.19
2019-04-14T17:27:33.196Z,53.88
2019-04-14T17:30:03.781Z,53.46
2019-04-14T17:32:31.468Z,54.40
2019-04-14T17:35:15.914Z,54.63
2019-04-14T17:37:43.888Z,54.65
2019-04-14T17:40:23.963Z,54.71
2019-04-14T17:42:54.185Z,55.44
2019-04-14T17:45:25.096Z,55.33
2019-04-14T17:47:52.803Z,56.34
2019-04-14T17:50:25.416Z,56.55
2019-04-14T17:52:59.327Z,56.68
2019-04-14T17:55:27.417Z,56.96
2019-04-14T17:57:55.240Z,57.74
2019-04-14T18:00:23.252Z,58.05
2019-04-14T18:03:06.079Z,57.91
2019-04-14T18:05:34.062Z,57.49
2019-04-14T18:08:02.040Z,58.21
2019-04-14T18:10:35.596Z,58.47
2019-04-14T18:13:09.362Z,58.67
2019-04-14T18:15:54.244Z,59.30
2019-04-14T18:18:24.730Z,59.76
2019-04-14T18:20:52.469Z,60.14
2019-04-14T18:23:18.289Z,60.64
2019-04-14T18:25:44.381Z,60.94
2019-04-14T18:28:28.576Z,60.90
2019-04-14T18:31:05.241Z,61.20
2019-04-14T18:33:35.846Z,61.05
2019-04-14T18:36:06.893Z,61.33
2019-04-14T18:38:46.982Z,61.53
2019-04-14T18:41:14.986Z,61.59
2019-04-14T18:43:58.133Z,61.73
2019-04-14T18:46:28.873Z,62.24
2019-04-14T18:49:02.235Z,62.89
2019-04-14T18:51:33.142Z,62.92
2019-04-14T18:54:00.835Z,63.34
2019-04-14T18:56:46.804Z,63.16
2019-04-14T18:59:31.511Z,63.54
2019-04-14T19:01:57.362Z,63.94
2019-04-14T19:04:23.191Z,64.18
2019-04-14T19:06:49.233Z,63.98
2019-04-14T19:09:15.088Z,64.42
2019-04-14T19:11:42.813Z,64.72
2019-04-14T19:14:10.562Z,64.96
2019-04-14T19:16:40.019Z,64.90
2019-04-14T19:19:07.688Z,65.27
2019-04-14T19:21:33.522Z,65.33
2019-04-14T19:23:59.603Z,65.21
2019-04-14T19:26:25.480Z,65.46
2019-04-14T19:28:51.293Z,65.69
2019-04-14T19:31:17.082Z,65.77
2019-04-14T19:33:42.903Z,66.05
2019-04-14T19:36:08.703Z,66.18
2019-04-14T19:38:34.517Z,66.30
2019-04-14T19:41:00.579Z,66.32
2019-04-14T19:43:26.401Z,66.72
2019-04-14T19:45:52.489Z,66.79
2019-04-14T19:48:18.535Z,67.25
2019-04-14T19:50:44.351Z,67.18
2019-04-14T19:53:10.230Z,67.60
2019-04-14T19:55:37.355Z,67.74
2019-04-14T19:58:03.387Z,67.67
2019-04-14T20:00:29.245Z,68.10
2019-04-14T20:02:55.114Z,68.35
2019-04-14T20:05:20.909Z,68.54
2019-04-14T20:07:46.803Z,68.72
2019-04-14T20:10:13.110Z,69.19
2019-04-14T20:12:38.921Z,69.93
2019-04-14T20:15:05.418Z,69.99
2019-04-14T20:17:50.109Z,70.26
2019-04-14T20:20:20.798Z,70.03
2019-04-14T20:22:48.577Z,70.35
2019-04-14T20:25:33.712Z,70.47
2019-04-14T20:28:03.525Z,70.39
2019-04-14T20:30:34.016Z,70.50
2019-04-14T20:33:00.050Z,70.89
2019-04-14T20:35:25.853Z,71.04
2019-04-14T20:37:51.742Z,71.16
2019-04-14T20:40:17.676Z,71.28
2019-04-14T20:42:43.739Z,71.35
2019-04-14T20:45:11.763Z,71.38
2019-04-14T20:47:37.856Z,71.53
2019-04-14T20:50:05.647Z,71.94
2019-04-14T20:52:31.457Z,72.25
2019-04-14T20:54:57.528Z,72.45
2019-04-14T20:57:23.476Z,72.46
2019-04-14T20:59:49.563Z,72.76
2019-04-14T21:02:29.449Z,73.28
2019-04-14T21:04:57.166Z,73.80
2019-04-14T21:07:24.884Z,74.24
2019-04-14T21:09:55.343Z,74.83
2019-04-14T21:12:29.052Z,74.86
2019-04-14T21:15:05.838Z,74.73
2019-04-14T21:17:42.093Z,75.00
2019-04-14T21:20:10.272Z,74.94
2019-04-14T21:22:44.636Z,75.00
2019-04-14T21:25:18.512Z,74.69
2019-04-14T21:27:58.451Z,74.79
2019-04-14T21:30:26.153Z,75.06
2019-04-14T21:33:02.748Z,75.26
2019-04-14T21:35:42.658Z,75.58
2019-04-14T21:38:26.893Z,75.50
2019-04-14T21:41:00.648Z,75.93
2019-04-14T21:43:26.445Z,76.11
2019-04-14T21:45:52.524Z,76.33
2019-04-14T21:48:18.547Z,76.09
2019-04-14T21:50:45.258Z,76.14
2019-04-14T21:53:11.375Z,76.11
2019-04-14T21:55:37.406Z,76.43
2019-04-14T21:58:21.842Z,76.58
2019-04-14T22:01:05.101Z,76.46
2019-04-14T22:03:51.295Z,76.48
2019-04-14T22:06:34.113Z,76.44
2019-04-14T22:08:59.943Z,76.86
2019-04-14T22:11:27.733Z,76.85
2019-04-14T22:13:53.904Z,76.73
2019-04-14T22:16:22.716Z,76.95
2019-04-14T22:18:48.823Z,77.17
2019-04-14T22:21:17.799Z,77.12
2019-04-14T22:23:43.902Z,76.97
2019-04-14T22:26:09.705Z,77.00
2019-04-14T22:28:35.846Z,77.15
2019-04-14T22:31:03.912Z,77.33
2019-04-14T22:33:29.737Z,77.45
2019-04-14T22:35:58.741Z,77.58
2019-04-14T22:38:24.536Z,77.64
2019-04-14T22:40:53.934Z,77.73
2019-04-14T22:43:19.861Z,77.31
2019-04-14T22:45:45.662Z,77.08
2019-04-14T22:48:11.486Z,77.35
2019-04-14T22:50:37.580Z,77.75
2019-04-14T22:53:06.199Z,78.36
2019-04-14T22:55:32.094Z,78.43
2019-04-14T22:58:00.954Z,78.38
2019-04-14T23:00:40.947Z,78.34
2019-04-14T23:03:11.228Z,78.75
2019-04-14T23:05:51.229Z,78.85
2019-04-14T23:08:21.742Z,79.18
2019-04-14T23:11:06.701Z,79.23
2019-04-14T23:13:51.415Z,79.06
2019-04-14T23:16:23.221Z,78.89
2019-04-14T23:18:56.581Z,78.71
2019-04-14T23:21:30.312Z,78.70
2019-04-14T23:24:07.546Z,78.88
2019-04-14T23:26:33.357Z,79.02
2019-04-14T23:28:59.185Z,78.80
2019-04-14T23:31:24.982Z,78.70
2019-04-14T23:33:50.794Z,78.86
2019-04-14T23:36:16.591Z,79.26
2019-04-14T23:38:42.408Z,79.35
2019-04-14T23:41:08.232Z,79.62
2019-04-14T23:43:34.270Z,79.76
2019-04-14T23:46:00.473Z,80.17
2019-04-14T23:48:26.539Z,80.51
2019-04-14T23:50:52.365Z,80.51
2019-04-14T23:53:18.458Z,80.25
2019-04-14T23:55:44.284Z,80.18
2019-04-14T23:58:10.125Z,80.36
